createdAt,value
2023-02-28T18:31:56.308Z,3.22
2023-02-28T18:32:56.184Z,3.11
2023-02-28T18:33:56.126Z,3.11
2023-02-28T18:34:56.073Z,3.08
2023-02-28T18:35:56.071Z,3.01
2023-02-28T18:36:55.961Z,3.03
2023-02-28T18:37:55.909Z,2.95
2023-02-28T18:38:55.861Z,2.95
2023-02-28T18:39:55.809Z,2.98
2023-02-28T18:40:55.788Z,2.91
2023-02-28T18:41:55.702Z,2.82
2023-02-28T18:42:55.654Z,2.80
2023-02-28T18:43:55.604Z,2.85
2023-02-28T18:44:55.552Z,2.77
2023-02-28T18:45:55.523Z,2.77
2023-02-28T18:46:55.482Z,2.80
2023-02-28T18:47:55.424Z,2.73
2023-02-28T18:48:55.349Z,2.82
2023-02-28T18:49:55.298Z,2.73
2023-02-28T18:50:55.248Z,2.64
2023-02-28T18:51:55.197Z,2.65
2023-02-28T18:52:55.152Z,2.68
2023-02-28T18:53:55.102Z,2.57
2023-02-28T18:54:55.048Z,2.52
2023-02-28T18:55:54.999Z,2.58
2023-02-28T18:56:54.956Z,2.57
2023-02-28T18:57:54.906Z,2.57
2023-02-28T18:58:54.848Z,2.52
2023-02-28T18:59:54.807Z,2.55
2023-02-28T19:00:54.839Z,2.54
2023-02-28T19:01:54.705Z,2.57
2023-02-28T19:02:54.650Z,2.50
2023-02-28T19:03:54.663Z,2.43
2023-02-28T19:04:54.553Z,2.44
2023-02-28T19:05:54.505Z,2.41
2023-02-28T19:06:54.463Z,2.39
2023-02-28T19:07:54.409Z,2.43
2023-02-28T19:08:54.358Z,2.32
2023-02-28T19:09:54.308Z,2.36
2023-02-28T19:10:54.266Z,2.41
2023-02-28T19:11:54.213Z,2.40
2023-02-28T19:12:54.167Z,2.30
2023-02-28T19:13:54.114Z,2.37
2023-02-28T19:14:54.067Z,2.22
2023-02-28T19:15:57.233Z,2.30
2023-02-28T19:16:54.050Z,2.26
2023-02-28T19:17:53.923Z,2.25
2023-02-28T19:18:53.870Z,2.21
2023-02-28T19:19:53.839Z,2.26
2023-02-28T19:20:53.776Z,2.15
2023-02-28T19:21:55.491Z,2.07
2023-02-28T19:22:53.692Z,2.12
2023-02-28T19:23:53.648Z,2.15
2023-02-28T19:24:53.588Z,2.12
2023-02-28T19:25:53.528Z,2.04
2023-02-28T19:26:53.476Z,2.00
2023-02-28T19:27:53.426Z,2.03
2023-02-28T19:28:53.377Z,1.97
2023-02-28T19:29:53.331Z,2.05
2023-02-28T19:30:53.279Z,2.03
2023-02-28T19:31:53.404Z,1.92
2023-02-28T19:32:53.267Z,2.08
2023-02-28T19:33:53.221Z,1.95
2023-02-28T19:34:53.085Z,1.98
2023-02-28T19:35:53.221Z,1.95
2023-02-28T19:36:52.994Z,1.89
2023-02-28T19:37:52.945Z,1.97
2023-02-28T19:38:52.916Z,1.88
2023-02-28T19:39:52.842Z,1.75
2023-02-28T19:40:52.793Z,1.74
2023-02-28T19:41:52.739Z,1.78
2023-02-28T19:42:52.690Z,1.71
2023-02-28T19:43:52.648Z,1.81
2023-02-28T19:44:52.604Z,1.68
2023-02-28T19:45:52.603Z,1.78
2023-02-28T19:46:52.495Z,1.70
2023-02-28T19:47:52.470Z,1.64
2023-02-28T19:48:52.401Z,1.63
2023-02-28T19:49:52.352Z,1.66
2023-02-28T19:50:52.299Z,1.68
2023-02-28T19:51:52.280Z,1.68
2023-02-28T19:52:52.203Z,1.63
2023-02-28T19:53:52.187Z,1.57
2023-02-28T19:54:52.136Z,1.60
2023-02-28T19:55:52.132Z,1.56
2023-02-28T19:56:52.046Z,1.56
2023-02-28T19:57:51.963Z,1.56
2023-02-28T19:58:51.913Z,1.58
2023-02-28T19:59:52.110Z,1.52
2023-02-28T20:00:51.895Z,1.46
2023-02-28T20:01:51.762Z,1.48
2023-02-28T20:02:51.709Z,1.49
2023-02-28T20:03:51.677Z,1.45
2023-02-28T20:04:51.677Z,1.48
2023-02-28T20:05:51.566Z,1.42
2023-02-28T20:06:51.517Z,1.28
2023-02-28T20:07:51.579Z,1.42
2023-02-28T20:08:51.418Z,1.38
2023-02-28T20:09:51.384Z,1.34
2023-02-28T20:10:51.317Z,1.28
2023-02-28T20:11:51.268Z,1.34
2023-02-28T20:12:51.226Z,1.31
2023-02-28T20:13:51.171Z,1.20
2023-02-28T20:14:51.136Z,1.31
2023-02-28T20:15:51.082Z,1.27
2023-02-28T20:16:51.094Z,1.22
2023-02-28T20:17:50.977Z,1.21
2023-02-28T20:18:50.938Z,1.21
2023-02-28T20:19:50.886Z,1.18
2023-02-28T20:20:50.828Z,1.24
2023-02-28T20:21:50.775Z,1.21
2023-02-28T20:22:50.749Z,1.21
2023-02-28T20:23:50.697Z,1.20
2023-02-28T20:24:50.628Z,1.22
2023-02-28T20:25:50.589Z,1.24
2023-02-28T20:26:50.528Z,1.20
2023-02-28T20:27:50.483Z,1.21
2023-02-28T20:28:50.434Z,1.18
2023-02-28T20:29:50.382Z,1.18
2023-02-28T20:30:50.427Z,1.10
2023-02-28T20:31:50.325Z,1.10
2023-02-28T20:32:50.256Z,1.13
2023-02-28T20:33:50.189Z,1.07
2023-02-28T20:34:50.146Z,1.03
2023-02-28T20:35:50.125Z,1.14
2023-02-28T20:36:50.039Z,1.12
2023-02-28T20:37:50.032Z,1.07
2023-02-28T20:38:49.935Z,1.09
2023-02-28T20:39:49.905Z,1.13
2023-02-28T20:40:49.839Z,1.14
2023-02-28T20:41:49.788Z,1.06
2023-02-28T20:42:49.742Z,1.09
2023-02-28T20:43:49.703Z,1.09
2023-02-28T20:44:49.643Z,1.07
2023-02-28T20:45:49.824Z,1.03
2023-02-28T20:46:49.549Z,1.04
2023-02-28T20:47:49.497Z,1.12
2023-02-28T20:48:49.451Z,1.02
2023-02-28T20:49:49.392Z,0.99
2023-02-28T20:50:49.343Z,1.02
2023-02-28T20:51:49.294Z,0.95
2023-02-28T20:52:49.244Z,0.95
2023-02-28T20:53:49.197Z,0.94
2023-02-28T20:54:49.146Z,0.99
2023-02-28T20:55:49.114Z,0.95
2023-02-28T20:56:49.044Z,0.99
2023-02-28T20:57:48.997Z,0.95
2023-02-28T20:58:48.950Z,0.89
2023-02-28T20:59:48.906Z,0.94
2023-02-28T21:00:48.847Z,0.88
2023-02-28T21:01:48.891Z,0.94
2023-02-28T21:02:48.804Z,0.89
2023-02-28T21:03:48.703Z,0.85
2023-02-28T21:04:48.652Z,0.88
2023-02-28T21:05:48.604Z,0.85
2023-02-28T21:06:48.554Z,0.86
2023-02-28T21:07:48.506Z,0.88
2023-02-28T21:08:48.464Z,0.85
2023-02-28T21:09:48.402Z,0.74
2023-02-28T21:10:48.357Z,0.84
2023-02-28T21:11:48.350Z,0.84
2023-02-28T21:12:48.262Z,0.76
